sensor_id;sensor_type;location;lat;lon;timestamp;P1;durP1;ratioP1;P2;durP2;ratioP2
25481;SDS011;13395;50.752;4.268;2022-07-29T00:01:35;2.63;;;1.63;;
25481;SDS011;13395;50.752;4.268;2022-07-29T00:04:00;2.85;;;1.45;;
25481;SDS011;13395;50.752;4.268;2022-07-29T00:06:26;4.68;;;1.50;;
25481;SDS011;13395;50.752;4.268;2022-07-29T00:08:52;7.85;;;1.80;;
25481;SDS011;13395;50.752;4.268;2022-07-29T00:11:17;5.25;;;1.40;;
25481;SDS011;13395;50.752;4.268;2022-07-29T00:13:43;3.80;;;1.70;;
25481;SDS011;13395;50.752;4.268;2022-07-29T00:16:08;4.10;;;1.52;;
25481;SDS011;13395;50.752;4.268;2022-07-29T00:18:34;4.63;;;1.42;;
25481;SDS011;13395;50.752;4.268;2022-07-29T00:21:00;6.45;;;1.83;;
25481;SDS011;13395;50.752;4.268;2022-07-29T00:23:25;3.78;;;1.42;;
25481;SDS011;13395;50.752;4.268;2022-07-29T00:25:54;6.68;;;2.00;;
25481;SDS011;13395;50.752;4.268;2022-07-29T00:28:19;5.85;;;1.60;;
25481;SDS011;13395;50.752;4.268;2022-07-29T00:30:45;5.15;;;1.67;;
25481;SDS011;13395;50.752;4.268;2022-07-29T00:33:10;3.67;;;1.67;;
25481;SDS011;13395;50.752;4.268;2022-07-29T00:35:36;5.53;;;1.60;;
25481;SDS011;13395;50.752;4.268;2022-07-29T00:38:17;4.68;;;1.35;;
25481;SDS011;13395;50.752;4.268;2022-07-29T00:40:43;4.03;;;1.55;;
25481;SDS011;13395;50.752;4.268;2022-07-29T00:43:10;3.00;;;1.30;;
25481;SDS011;13395;50.752;4.268;2022-07-29T00:45:37;5.70;;;1.55;;
25481;SDS011;13395;50.752;4.268;2022-07-29T00:48:03;6.65;;;1.40;;
25481;SDS011;13395;50.752;4.268;2022-07-29T00:50:30;5.95;;;1.35;;
25481;SDS011;13395;50.752;4.268;2022-07-29T00:52:57;10.05;;;1.60;;
25481;SDS011;13395;50.752;4.268;2022-07-29T00:55:22;6.13;;;1.33;;
25481;SDS011;13395;50.752;4.268;2022-07-29T00:57:48;4.22;;;1.50;;
25481;SDS011;13395;50.752;4.268;2022-07-29T01:00:17;4.85;;;1.60;;
25481;SDS011;13395;50.752;4.268;2022-07-29T01:02:47;4.95;;;1.50;;
25481;SDS011;13395;50.752;4.268;2022-07-29T01:05:13;8.07;;;1.35;;
25481;SDS011;13395;50.752;4.268;2022-07-29T01:07:42;3.30;;;1.60;;
25481;SDS011;13395;50.752;4.268;2022-07-29T01:10:09;5.25;;;1.40;;
25481;SDS011;13395;50.752;4.268;2022-07-29T01:12:37;9.75;;;2.60;;
25481;SDS011;13395;50.752;4.268;2022-07-29T01:15:04;4.78;;;1.60;;
25481;SDS011;13395;50.752;4.268;2022-07-29T01:17:42;5.65;;;1.55;;
25481;SDS011;13395;50.752;4.268;2022-07-29T01:29:12;4.25;;;1.60;;
25481;SDS011;13395;50.752;4.268;2022-07-29T01:34:10;3.90;;;1.52;;
25481;SDS011;13395;50.752;4.268;2022-07-29T01:36:48;8.85;;;1.63;;
25481;SDS011;13395;50.752;4.268;2022-07-29T01:39:26;4.43;;;1.90;;
25481;SDS011;13395;50.752;4.268;2022-07-29T01:41:57;2.40;;;1.63;;
25481;SDS011;13395;50.752;4.268;2022-07-29T01:44:41;5.85;;;1.63;;
25481;SDS011;13395;50.752;4.268;2022-07-29T01:47:17;4.88;;;1.85;;
25481;SDS011;13395;50.752;4.268;2022-07-29T01:49:49;5.45;;;1.67;;
25481;SDS011;13395;50.752;4.268;2022-07-29T01:52:46;5.07;;;1.35;;
25481;SDS011;13395;50.752;4.268;2022-07-29T01:55:22;6.22;;;1.73;;
25481;SDS011;13395;50.752;4.268;2022-07-29T01:57:52;3.60;;;1.55;;
25481;SDS011;13395;50.752;4.268;2022-07-29T02:00:18;5.43;;;1.85;;
25481;SDS011;13395;50.752;4.268;2022-07-29T02:02:45;3.70;;;1.60;;
25481;SDS011;13395;50.752;4.268;2022-07-29T02:05:14;6.75;;;2.15;;
25481;SDS011;13395;50.752;4.268;2022-07-29T02:07:43;2.75;;;1.60;;
25481;SDS011;13395;50.752;4.268;2022-07-29T02:10:11;3.17;;;1.77;;
25481;SDS011;13395;50.752;4.268;2022-07-29T02:12:38;4.78;;;1.58;;
25481;SDS011;13395;50.752;4.268;2022-07-29T02:15:05;6.22;;;1.95;;
25481;SDS011;13395;50.752;4.268;2022-07-29T02:17:38;2.95;;;1.50;;
25481;SDS011;13395;50.752;4.268;2022-07-29T02:20:13;4.88;;;1.70;;
25481;SDS011;13395;50.752;4.268;2022-07-29T02:22:40;8.45;;;1.90;;
25481;SDS011;13395;50.752;4.268;2022-07-29T02:25:09;6.45;;;2.10;;
25481;SDS011;13395;50.752;4.268;2022-07-29T02:27:36;7.68;;;1.90;;
25481;SDS011;13395;50.752;4.268;2022-07-29T02:30:04;7.93;;;1.95;;
25481;SDS011;13395;50.752;4.268;2022-07-29T02:32:32;2.55;;;1.52;;
25481;SDS011;13395;50.752;4.268;2022-07-29T02:35:00;5.45;;;1.90;;
25481;SDS011;13395;50.752;4.268;2022-07-29T02:37:27;6.63;;;1.88;;
25481;SDS011;13395;50.752;4.268;2022-07-29T02:39:54;3.67;;;1.92;;
25481;SDS011;13395;50.752;4.268;2022-07-29T02:42:22;4.55;;;1.80;;
25481;SDS011;13395;50.752;4.268;2022-07-29T02:44:48;3.63;;;1.92;;
25481;SDS011;13395;50.752;4.268;2022-07-29T02:47:16;4.70;;;1.83;;
25481;SDS011;13395;50.752;4.268;2022-07-29T02:54:51;4.90;;;1.55;;
25481;SDS011;13395;50.752;4.268;2022-07-29T02:57:41;2.70;;;1.65;;
25481;SDS011;13395;50.752;4.268;2022-07-29T03:00:09;4.03;;;1.90;;
25481;SDS011;13395;50.752;4.268;2022-07-29T03:02:38;3.13;;;2.00;;
25481;SDS011;13395;50.752;4.268;2022-07-29T03:05:07;3.05;;;1.83;;
25481;SDS011;13395;50.752;4.268;2022-07-29T03:07:36;3.20;;;2.00;;
25481;SDS011;13395;50.752;4.268;2022-07-29T03:10:05;4.20;;;1.88;;
25481;SDS011;13395;50.752;4.268;2022-07-29T03:12:33;4.75;;;2.00;;
25481;SDS011;13395;50.752;4.268;2022-07-29T03:15:00;7.10;;;2.38;;
25481;SDS011;13395;50.752;4.268;2022-07-29T03:17:26;5.78;;;2.03;;
25481;SDS011;13395;50.752;4.268;2022-07-29T03:19:52;4.13;;;2.13;;
25481;SDS011;13395;50.752;4.268;2022-07-29T03:22:19;2.70;;;1.70;;
25481;SDS011;13395;50.752;4.268;2022-07-29T03:24:45;4.10;;;2.00;;
25481;SDS011;13395;50.752;4.268;2022-07-29T03:27:11;3.35;;;2.00;;
25481;SDS011;13395;50.752;4.268;2022-07-29T03:29:37;4.90;;;2.30;;
25481;SDS011;13395;50.752;4.268;2022-07-29T03:32:03;5.25;;;2.08;;
25481;SDS011;13395;50.752;4.268;2022-07-29T03:34:30;3.78;;;1.77;;
25481;SDS011;13395;50.752;4.268;2022-07-29T03:36:56;3.95;;;2.05;;
25481;SDS011;13395;50.752;4.268;2022-07-29T03:39:22;3.97;;;1.80;;
25481;SDS011;13395;50.752;4.268;2022-07-29T03:41:53;4.32;;;2.13;;
25481;SDS011;13395;50.752;4.268;2022-07-29T03:44:21;3.80;;;1.95;;
25481;SDS011;13395;50.752;4.268;2022-07-29T03:46:48;4.95;;;2.08;;
25481;SDS011;13395;50.752;4.268;2022-07-29T03:49:15;3.42;;;2.50;;
25481;SDS011;13395;50.752;4.268;2022-07-29T03:51:43;6.53;;;2.30;;
25481;SDS011;13395;50.752;4.268;2022-07-29T03:54:09;4.13;;;2.20;;
25481;SDS011;13395;50.752;4.268;2022-07-29T03:56:37;5.60;;;2.10;;
25481;SDS011;13395;50.752;4.268;2022-07-29T03:59:07;5.72;;;3.80;;
25481;SDS011;13395;50.752;4.268;2022-07-29T04:01:34;5.35;;;2.90;;
25481;SDS011;13395;50.752;4.268;2022-07-29T04:04:04;5.68;;;2.05;;
25481;SDS011;13395;50.752;4.268;2022-07-29T04:06:37;7.25;;;2.53;;
25481;SDS011;13395;50.752;4.268;2022-07-29T04:09:06;6.85;;;2.60;;
25481;SDS011;13395;50.752;4.268;2022-07-29T04:11:32;5.50;;;2.53;;
25481;SDS011;13395;50.752;4.268;2022-07-29T04:13:58;8.95;;;2.65;;
25481;SDS011;13395;50.752;4.268;2022-07-29T04:16:24;3.83;;;2.30;;
25481;SDS011;13395;50.752;4.268;2022-07-29T04:18:49;3.97;;;2.42;;
25481;SDS011;13395;50.752;4.268;2022-07-29T04:21:15;9.52;;;2.95;;
25481;SDS011;13395;50.752;4.268;2022-07-29T04:23:40;7.25;;;2.88;;
25481;SDS011;13395;50.752;4.268;2022-07-29T04:26:09;6.78;;;2.30;;
25481;SDS011;13395;50.752;4.268;2022-07-29T04:28:35;3.15;;;2.08;;
25481;SDS011;13395;50.752;4.268;2022-07-29T04:31:01;2.95;;;2.20;;
25481;SDS011;13395;50.752;4.268;2022-07-29T04:33:27;4.13;;;2.33;;
25481;SDS011;13395;50.752;4.268;2022-07-29T04:35:52;4.97;;;2.13;;
25481;SDS011;13395;50.752;4.268;2022-07-29T04:38:18;4.07;;;2.22;;
25481;SDS011;13395;50.752;4.268;2022-07-29T04:40:43;5.47;;;2.58;;
25481;SDS011;13395;50.752;4.268;2022-07-29T04:43:09;7.43;;;2.60;;
25481;SDS011;13395;50.752;4.268;2022-07-29T04:45:35;7.07;;;1.90;;
25481;SDS011;13395;50.752;4.268;2022-07-29T04:48:00;5.50;;;2.20;;
25481;SDS011;13395;50.752;4.268;2022-07-29T04:50:26;5.38;;;2.33;;
25481;SDS011;13395;50.752;4.268;2022-07-29T04:52:52;4.45;;;2.30;;
25481;SDS011;13395;50.752;4.268;2022-07-29T04:55:17;4.30;;;2.20;;
25481;SDS011;13395;50.752;4.268;2022-07-29T04:57:43;7.00;;;2.50;;
25481;SDS011;13395;50.752;4.268;2022-07-29T05:00:09;10.02;;;2.67;;
25481;SDS011;13395;50.752;4.268;2022-07-29T05:02:35;3.22;;;2.15;;
25481;SDS011;13395;50.752;4.268;2022-07-29T05:05:00;6.40;;;2.53;;
25481;SDS011;13395;50.752;4.268;2022-07-29T05:07:26;4.68;;;2.30;;
25481;SDS011;13395;50.752;4.268;2022-07-29T05:09:51;6.40;;;2.30;;
25481;SDS011;13395;50.752;4.268;2022-07-29T05:12:18;4.88;;;1.80;;
25481;SDS011;13395;50.752;4.268;2022-07-29T05:14:43;5.65;;;2.42;;
25481;SDS011;13395;50.752;4.268;2022-07-29T05:17:09;7.25;;;2.33;;
25481;SDS011;13395;50.752;4.268;2022-07-29T05:19:34;4.20;;;2.03;;
25481;SDS011;13395;50.752;4.268;2022-07-29T05:22:00;5.10;;;1.80;;
25481;SDS011;13395;50.752;4.268;2022-07-29T05:24:26;5.05;;;2.03;;
25481;SDS011;13395;50.752;4.268;2022-07-29T05:26:53;6.25;;;1.90;;
25481;SDS011;13395;50.752;4.268;2022-07-29T05:29:18;8.25;;;1.90;;
25481;SDS011;13395;50.752;4.268;2022-07-29T05:31:44;5.25;;;2.20;;
25481;SDS011;13395;50.752;4.268;2022-07-29T05:34:11;6.75;;;1.63;;
25481;SDS011;13395;50.752;4.268;2022-07-29T05:36:36;6.20;;;2.38;;
25481;SDS011;13395;50.752;4.268;2022-07-29T05:39:02;6.25;;;1.50;;
25481;SDS011;13395;50.752;4.268;2022-07-29T05:41:28;9.07;;;2.45;;
25481;SDS011;13395;50.752;4.268;2022-07-29T05:43:57;5.53;;;1.85;;
25481;SDS011;13395;50.752;4.268;2022-07-29T05:46:23;5.35;;;1.52;;
25481;SDS011;13395;50.752;4.268;2022-07-29T05:48:49;5.75;;;1.92;;
25481;SDS011;13395;50.752;4.268;2022-07-29T05:51:14;8.88;;;2.20;;
25481;SDS011;13395;50.752;4.268;2022-07-29T05:53:40;4.32;;;1.80;;
25481;SDS011;13395;50.752;4.268;2022-07-29T05:56:06;13.32;;;2.67;;
25481;SDS011;13395;50.752;4.268;2022-07-29T05:58:32;4.55;;;1.95;;
25481;SDS011;13395;50.752;4.268;2022-07-29T06:00:58;9.35;;;2.45;;
25481;SDS011;13395;50.752;4.268;2022-07-29T06:03:24;13.40;;;3.38;;
25481;SDS011;13395;50.752;4.268;2022-07-29T06:05:50;8.80;;;3.15;;
25481;SDS011;13395;50.752;4.268;2022-07-29T06:08:16;17.35;;;3.40;;
25481;SDS011;13395;50.752;4.268;2022-07-29T06:10:44;5.57;;;2.97;;
25481;SDS011;13395;50.752;4.268;2022-07-29T06:13:10;11.07;;;3.20;;
25481;SDS011;13395;50.752;4.268;2022-07-29T06:15:37;13.07;;;3.50;;
25481;SDS011;13395;50.752;4.268;2022-07-29T06:18:02;7.38;;;2.78;;
25481;SDS011;13395;50.752;4.268;2022-07-29T06:20:28;6.28;;;2.90;;
25481;SDS011;13395;50.752;4.268;2022-07-29T06:22:55;12.55;;;3.42;;
25481;SDS011;13395;50.752;4.268;2022-07-29T06:25:21;15.30;;;3.90;;
25481;SDS011;13395;50.752;4.268;2022-07-29T06:27:46;10.40;;;3.97;;
25481;SDS011;13395;50.752;4.268;2022-07-29T06:30:12;9.02;;;3.80;;
25481;SDS011;13395;50.752;4.268;2022-07-29T06:32:38;9.85;;;3.40;;
25481;SDS011;13395;50.752;4.268;2022-07-29T06:35:04;9.93;;;3.47;;
25481;SDS011;13395;50.752;4.268;2022-07-29T06:37:30;7.40;;;3.92;;
25481;SDS011;13395;50.752;4.268;2022-07-29T06:39:56;8.65;;;3.38;;
25481;SDS011;13395;50.752;4.268;2022-07-29T06:42:43;9.43;;;4.77;;
25481;SDS011;13395;50.752;4.268;2022-07-29T06:45:10;9.63;;;3.80;;
25481;SDS011;13395;50.752;4.268;2022-07-29T06:47:36;7.28;;;3.50;;
25481;SDS011;13395;50.752;4.268;2022-07-29T06:50:02;8.35;;;4.28;;
25481;SDS011;13395;50.752;4.268;2022-07-29T06:52:28;7.10;;;3.38;;
25481;SDS011;13395;50.752;4.268;2022-07-29T06:54:54;15.93;;;4.25;;
25481;SDS011;13395;50.752;4.268;2022-07-29T06:57:20;15.10;;;4.45;;
25481;SDS011;13395;50.752;4.268;2022-07-29T06:59:46;16.52;;;3.70;;
25481;SDS011;13395;50.752;4.268;2022-07-29T07:02:12;8.35;;;3.67;;
25481;SDS011;13395;50.752;4.268;2022-07-29T07:04:38;11.48;;;4.13;;
25481;SDS011;13395;50.752;4.268;2022-07-29T07:07:03;20.30;;;4.53;;
25481;SDS011;13395;50.752;4.268;2022-07-29T07:09:29;13.68;;;4.55;;
25481;SDS011;13395;50.752;4.268;2022-07-29T07:11:55;13.65;;;4.68;;
25481;SDS011;13395;50.752;4.268;2022-07-29T07:14:20;13.98;;;4.00;;
25481;SDS011;13395;50.752;4.268;2022-07-29T07:16:46;7.72;;;3.00;;
25481;SDS011;13395;50.752;4.268;2022-07-29T07:19:11;11.75;;;3.42;;
25481;SDS011;13395;50.752;4.268;2022-07-29T07:21:37;5.80;;;3.08;;
25481;SDS011;13395;50.752;4.268;2022-07-29T07:24:03;11.27;;;5.07;;
25481;SDS011;13395;50.752;4.268;2022-07-29T07:26:29;19.55;;;5.05;;
25481;SDS011;13395;50.752;4.268;2022-07-29T07:28:54;9.35;;;4.05;;
25481;SDS011;13395;50.752;4.268;2022-07-29T07:31:20;15.13;;;5.30;;
25481;SDS011;13395;50.752;4.268;2022-07-29T07:33:46;12.20;;;4.63;;
25481;SDS011;13395;50.752;4.268;2022-07-29T07:36:11;8.23;;;3.00;;
25481;SDS011;13395;50.752;4.268;2022-07-29T07:38:37;10.15;;;3.05;;
25481;SDS011;13395;50.752;4.268;2022-07-29T07:41:03;4.47;;;2.60;;
25481;SDS011;13395;50.752;4.268;2022-07-29T07:43:28;10.38;;;2.72;;
25481;SDS011;13395;50.752;4.268;2022-07-29T07:45:54;12.32;;;3.88;;
25481;SDS011;13395;50.752;4.268;2022-07-29T07:48:20;10.90;;;3.53;;
25481;SDS011;13395;50.752;4.268;2022-07-29T07:50:45;7.97;;;3.88;;
25481;SDS011;13395;50.752;4.268;2022-07-29T07:53:11;6.75;;;3.50;;
25481;SDS011;13395;50.752;4.268;2022-07-29T07:55:40;15.57;;;3.63;;
25481;SDS011;13395;50.752;4.268;2022-07-29T07:58:07;8.00;;;3.20;;
25481;SDS011;13395;50.752;4.268;2022-07-29T08:00:34;7.70;;;2.55;;
25481;SDS011;13395;50.752;4.268;2022-07-29T08:02:59;3.67;;;2.28;;
25481;SDS011;13395;50.752;4.268;2022-07-29T08:05:25;5.25;;;2.80;;
25481;SDS011;13395;50.752;4.268;2022-07-29T08:07:51;5.80;;;2.28;;
25481;SDS011;13395;50.752;4.268;2022-07-29T08:10:17;6.25;;;2.40;;
25481;SDS011;13395;50.752;4.268;2022-07-29T08:13:03;5.53;;;2.20;;
25481;SDS011;13395;50.752;4.268;2022-07-29T08:15:32;4.75;;;2.00;;
25481;SDS011;13395;50.752;4.268;2022-07-29T08:17:59;7.05;;;2.53;;
25481;SDS011;13395;50.752;4.268;2022-07-29T08:20:24;4.70;;;2.40;;
25481;SDS011;13395;50.752;4.268;2022-07-29T08:22:50;3.50;;;2.30;;
25481;SDS011;13395;50.752;4.268;2022-07-29T08:25:16;8.55;;;2.70;;
25481;SDS011;13395;50.752;4.268;2022-07-29T08:27:45;4.45;;;1.83;;
25481;SDS011;13395;50.752;4.268;2022-07-29T08:30:13;2.55;;;2.13;;
25481;SDS011;13395;50.752;4.268;2022-07-29T08:32:39;3.05;;;2.30;;
25481;SDS011;13395;50.752;4.268;2022-07-29T08:35:05;6.85;;;1.80;;
25481;SDS011;13395;50.752;4.268;2022-07-29T08:37:31;3.53;;;1.77;;
25481;SDS011;13395;50.752;4.268;2022-07-29T08:39:56;3.70;;;2.17;;
25481;SDS011;13395;50.752;4.268;2022-07-29T08:42:22;4.55;;;2.08;;
25481;SDS011;13395;50.752;4.268;2022-07-29T08:44:48;3.33;;;1.60;;
25481;SDS011;13395;50.752;4.268;2022-07-29T08:47:15;8.48;;;2.17;;
25481;SDS011;13395;50.752;4.268;2022-07-29T08:49:41;4.40;;;2.05;;
25481;SDS011;13395;50.752;4.268;2022-07-29T08:52:09;3.42;;;1.60;;
25481;SDS011;13395;50.752;4.268;2022-07-29T08:54:36;11.00;;;1.70;;
25481;SDS011;13395;50.752;4.268;2022-07-29T08:57:03;6.25;;;1.60;;
25481;SDS011;13395;50.752;4.268;2022-07-29T08:59:30;4.85;;;1.77;;
25481;SDS011;13395;50.752;4.268;2022-07-29T09:01:58;2.20;;;1.58;;
25481;SDS011;13395;50.752;4.268;2022-07-29T09:04:27;3.40;;;1.52;;
25481;SDS011;13395;50.752;4.268;2022-07-29T09:06:58;6.50;;;1.50;;
25481;SDS011;13395;50.752;4.268;2022-07-29T09:09:27;2.55;;;1.42;;
25481;SDS011;13395;50.752;4.268;2022-07-29T09:11:53;5.45;;;1.40;;
25481;SDS011;13395;50.752;4.268;2022-07-29T09:14:18;11.93;;;1.90;;
25481;SDS011;13395;50.752;4.268;2022-07-29T09:16:49;6.53;;;1.70;;
25481;SDS011;13395;50.752;4.268;2022-07-29T09:19:20;4.82;;;1.52;;
25481;SDS011;13395;50.752;4.268;2022-07-29T09:21:46;17.13;;;2.50;;
25481;SDS011;13395;50.752;4.268;2022-07-29T09:27:08;9.75;;;1.95;;
25481;SDS011;13395;50.752;4.268;2022-07-29T09:29:46;7.13;;;2.00;;
25481;SDS011;13395;50.752;4.268;2022-07-29T09:32:12;10.23;;;2.13;;
25481;SDS011;13395;50.752;4.268;2022-07-29T09:34:38;3.97;;;1.63;;
25481;SDS011;13395;50.752;4.268;2022-07-29T09:37:03;8.55;;;1.60;;
25481;SDS011;13395;50.752;4.268;2022-07-29T09:41:58;2.65;;;1.30;;
25481;SDS011;13395;50.752;4.268;2022-07-29T09:47:47;3.85;;;1.38;;
25481;SDS011;13395;50.752;4.268;2022-07-29T09:50:15;5.43;;;1.75;;
25481;SDS011;13395;50.752;4.268;2022-07-29T09:52:52;3.55;;;1.20;;
25481;SDS011;13395;50.752;4.268;2022-07-29T09:55:18;3.03;;;1.13;;
25481;SDS011;13395;50.752;4.268;2022-07-29T09:57:44;4.53;;;1.40;;
25481;SDS011;13395;50.752;4.268;2022-07-29T10:00:18;2.72;;;1.08;;
25481;SDS011;13395;50.752;4.268;2022-07-29T10:02:45;2.22;;;1.20;;
25481;SDS011;13395;50.752;4.268;2022-07-29T10:05:16;4.85;;;1.25;;
25481;SDS011;13395;50.752;4.268;2022-07-29T10:07:43;5.78;;;1.80;;
25481;SDS011;13395;50.752;4.268;2022-07-29T10:12:52;5.50;;;1.50;;
25481;SDS011;13395;50.752;4.268;2022-07-29T10:15:21;8.05;;;1.50;;
25481;SDS011;13395;50.752;4.268;2022-07-29T10:17:49;2.92;;;1.30;;
25481;SDS011;13395;50.752;4.268;2022-07-29T10:20:15;6.22;;;1.80;;
25481;SDS011;13395;50.752;4.268;2022-07-29T10:22:42;10.52;;;2.15;;
25481;SDS011;13395;50.752;4.268;2022-07-29T10:25:09;18.23;;;3.45;;
25481;SDS011;13395;50.752;4.268;2022-07-29T10:27:36;8.35;;;1.88;;
25481;SDS011;13395;50.752;4.268;2022-07-29T10:30:03;4.25;;;1.65;;
25481;SDS011;13395;50.752;4.268;2022-07-29T10:35:42;8.77;;;3.17;;
25481;SDS011;13395;50.752;4.268;2022-07-29T10:44:23;4.93;;;2.00;;
25481;SDS011;13395;50.752;4.268;2022-07-29T10:46:51;5.50;;;1.33;;
25481;SDS011;13395;50.752;4.268;2022-07-29T10:49:25;2.50;;;1.20;;
25481;SDS011;13395;50.752;4.268;2022-07-29T10:51:55;5.70;;;1.55;;
25481;SDS011;13395;50.752;4.268;2022-07-29T10:59:44;4.35;;;1.65;;
25481;SDS011;13395;50.752;4.268;2022-07-29T11:04:59;9.32;;;1.67;;
25481;SDS011;13395;50.752;4.268;2022-07-29T11:07:26;6.40;;;1.73;;
25481;SDS011;13395;50.752;4.268;2022-07-29T11:15:16;4.05;;;1.90;;
25481;SDS011;13395;50.752;4.268;2022-07-29T11:20:35;7.28;;;1.88;;
25481;SDS011;13395;50.752;4.268;2022-07-29T11:23:01;6.70;;;1.67;;
25481;SDS011;13395;50.752;4.268;2022-07-29T11:25:42;4.32;;;1.35;;
25481;SDS011;13395;50.752;4.268;2022-07-29T11:28:19;5.53;;;1.60;;
25481;SDS011;13395;50.752;4.268;2022-07-29T11:30:47;4.10;;;1.10;;
25481;SDS011;13395;50.752;4.268;2022-07-29T11:33:26;9.75;;;1.63;;
25481;SDS011;13395;50.752;4.268;2022-07-29T11:36:09;4.90;;;1.40;;
25481;SDS011;13395;50.752;4.268;2022-07-29T11:38:39;5.53;;;2.30;;
25481;SDS011;13395;50.752;4.268;2022-07-29T11:49:13;7.15;;;1.90;;
25481;SDS011;13395;50.752;4.268;2022-07-29T11:51:54;7.72;;;1.92;;
25481;SDS011;13395;50.752;4.268;2022-07-29T11:54:25;7.32;;;1.70;;
25481;SDS011;13395;50.752;4.268;2022-07-29T11:56:54;4.85;;;1.40;;
25481;SDS011;13395;50.752;4.268;2022-07-29T11:59:21;9.27;;;2.60;;
25481;SDS011;13395;50.752;4.268;2022-07-29T12:01:59;4.60;;;1.60;;
25481;SDS011;13395;50.752;4.268;2022-07-29T12:04:25;6.53;;;1.60;;
25481;SDS011;13395;50.752;4.268;2022-07-29T12:06:55;5.32;;;1.55;;
25481;SDS011;13395;50.752;4.268;2022-07-29T12:09:21;9.65;;;1.70;;
25481;SDS011;13395;50.752;4.268;2022-07-29T12:11:57;6.28;;;1.85;;
25481;SDS011;13395;50.752;4.268;2022-07-29T12:14:27;4.63;;;1.55;;
25481;SDS011;13395;50.752;4.268;2022-07-29T12:16:54;5.82;;;1.70;;
25481;SDS011;13395;50.752;4.268;2022-07-29T12:19:20;2.60;;;1.35;;
25481;SDS011;13395;50.752;4.268;2022-07-29T12:21:49;5.10;;;2.25;;
25481;SDS011;13395;50.752;4.268;2022-07-29T12:24:17;5.40;;;1.83;;
25481;SDS011;13395;50.752;4.268;2022-07-29T12:26:55;8.70;;;1.80;;
25481;SDS011;13395;50.752;4.268;2022-07-29T12:29:22;3.88;;;1.58;;
25481;SDS011;13395;50.752;4.268;2022-07-29T12:31:52;9.90;;;1.70;;
25481;SDS011;13395;50.752;4.268;2022-07-29T12:34:19;6.15;;;2.28;;
25481;SDS011;13395;50.752;4.268;2022-07-29T12:36:47;9.38;;;1.70;;
25481;SDS011;13395;50.752;4.268;2022-07-29T12:39:14;17.27;;;2.58;;
25481;SDS011;13395;50.752;4.268;2022-07-29T12:41:41;7.13;;;1.70;;
25481;SDS011;13395;50.752;4.268;2022-07-29T12:44:06;16.33;;;2.42;;
25481;SDS011;13395;50.752;4.268;2022-07-29T12:46:32;12.02;;;2.15;;
25481;SDS011;13395;50.752;4.268;2022-07-29T12:48:58;6.03;;;1.50;;
25481;SDS011;13395;50.752;4.268;2022-07-29T12:56:28;4.03;;;1.77;;
25481;SDS011;13395;50.752;4.268;2022-07-29T12:58:54;3.83;;;1.98;;
25481;SDS011;13395;50.752;4.268;2022-07-29T13:01:19;7.13;;;2.05;;
25481;SDS011;13395;50.752;4.268;2022-07-29T13:11:36;4.68;;;1.60;;
25481;SDS011;13395;50.752;4.268;2022-07-29T13:14:34;7.43;;;2.15;;
25481;SDS011;13395;50.752;4.268;2022-07-29T13:17:01;3.90;;;1.55;;
25481;SDS011;13395;50.752;4.268;2022-07-29T13:19:37;4.90;;;1.52;;
25481;SDS011;13395;50.752;4.268;2022-07-29T13:22:06;3.10;;;1.52;;
25481;SDS011;13395;50.752;4.268;2022-07-29T13:24:33;5.15;;;2.42;;
25481;SDS011;13395;50.752;4.268;2022-07-29T13:26:59;4.60;;;1.50;;
25481;SDS011;13395;50.752;4.268;2022-07-29T13:29:25;15.60;;;1.63;;
25481;SDS011;13395;50.752;4.268;2022-07-29T13:31:53;3.30;;;1.33;;
25481;SDS011;13395;50.752;4.268;2022-07-29T13:34:20;5.38;;;1.58;;
25481;SDS011;13395;50.752;4.268;2022-07-29T13:36:47;6.90;;;1.98;;
25481;SDS011;13395;50.752;4.268;2022-07-29T13:39:12;5.00;;;1.50;;
25481;SDS011;13395;50.752;4.268;2022-07-29T13:41:38;3.70;;;1.45;;
25481;SDS011;13395;50.752;4.268;2022-07-29T13:44:03;6.18;;;1.92;;
25481;SDS011;13395;50.752;4.268;2022-07-29T13:46:29;4.40;;;1.70;;
25481;SDS011;13395;50.752;4.268;2022-07-29T13:48:55;4.32;;;1.60;;
25481;SDS011;13395;50.752;4.268;2022-07-29T13:51:20;6.82;;;1.23;;
25481;SDS011;13395;50.752;4.268;2022-07-29T13:53:46;3.33;;;1.48;;
25481;SDS011;13395;50.752;4.268;2022-07-29T13:56:11;7.32;;;1.77;;
25481;SDS011;13395;50.752;4.268;2022-07-29T13:58:37;3.95;;;1.40;;
25481;SDS011;13395;50.752;4.268;2022-07-29T14:01:03;6.85;;;1.60;;
25481;SDS011;13395;50.752;4.268;2022-07-29T14:03:28;7.65;;;1.88;;
25481;SDS011;13395;50.752;4.268;2022-07-29T14:05:54;4.15;;;1.42;;
25481;SDS011;13395;50.752;4.268;2022-07-29T14:08:21;4.00;;;1.70;;
25481;SDS011;13395;50.752;4.268;2022-07-29T14:10:46;3.67;;;1.73;;
25481;SDS011;13395;50.752;4.268;2022-07-29T14:13:12;5.88;;;1.48;;
25481;SDS011;13395;50.752;4.268;2022-07-29T14:15:38;2.58;;;1.60;;
25481;SDS011;13395;50.752;4.268;2022-07-29T14:18:03;6.53;;;1.90;;
25481;SDS011;13395;50.752;4.268;2022-07-29T14:20:29;6.07;;;1.63;;
25481;SDS011;13395;50.752;4.268;2022-07-29T14:22:55;4.60;;;1.30;;
25481;SDS011;13395;50.752;4.268;2022-07-29T14:25:21;4.38;;;1.70;;
25481;SDS011;13395;50.752;4.268;2022-07-29T14:27:48;6.70;;;1.30;;
25481;SDS011;13395;50.752;4.268;2022-07-29T14:30:14;2.47;;;1.17;;
25481;SDS011;13395;50.752;4.268;2022-07-29T14:32:39;3.17;;;1.27;;
25481;SDS011;13395;50.752;4.268;2022-07-29T14:35:05;9.80;;;1.60;;
25481;SDS011;13395;50.752;4.268;2022-07-29T14:37:32;7.55;;;2.00;;
25481;SDS011;13395;50.752;4.268;2022-07-29T14:39:59;4.70;;;1.63;;
25481;SDS011;13395;50.752;4.268;2022-07-29T14:42:27;14.55;;;2.45;;
25481;SDS011;13395;50.752;4.268;2022-07-29T14:44:53;8.20;;;1.58;;
25481;SDS011;13395;50.752;4.268;2022-07-29T14:47:19;6.00;;;1.60;;
25481;SDS011;13395;50.752;4.268;2022-07-29T14:49:44;4.97;;;1.60;;
25481;SDS011;13395;50.752;4.268;2022-07-29T14:52:10;4.18;;;1.67;;
25481;SDS011;13395;50.752;4.268;2022-07-29T14:54:35;4.00;;;1.65;;
25481;SDS011;13395;50.752;4.268;2022-07-29T14:57:01;10.55;;;1.48;;
25481;SDS011;13395;50.752;4.268;2022-07-29T14:59:27;10.98;;;1.98;;
25481;SDS011;13395;50.752;4.268;2022-07-29T15:01:52;6.07;;;1.80;;
25481;SDS011;13395;50.752;4.268;2022-07-29T15:04:18;4.28;;;1.65;;
25481;SDS011;13395;50.752;4.268;2022-07-29T15:06:44;3.35;;;1.60;;
25481;SDS011;13395;50.752;4.268;2022-07-29T15:09:10;5.82;;;1.70;;
25481;SDS011;13395;50.752;4.268;2022-07-29T15:11:35;3.33;;;2.13;;
25481;SDS011;13395;50.752;4.268;2022-07-29T15:14:01;5.53;;;1.52;;
25481;SDS011;13395;50.752;4.268;2022-07-29T15:16:27;4.13;;;2.05;;
25481;SDS011;13395;50.752;4.268;2022-07-29T15:18:52;3.13;;;1.77;;
25481;SDS011;13395;50.752;4.268;2022-07-29T15:21:18;4.03;;;1.60;;
25481;SDS011;13395;50.752;4.268;2022-07-29T15:23:43;4.00;;;1.70;;
25481;SDS011;13395;50.752;4.268;2022-07-29T15:26:09;4.90;;;1.85;;
25481;SDS011;13395;50.752;4.268;2022-07-29T15:28:35;3.17;;;1.88;;
25481;SDS011;13395;50.752;4.268;2022-07-29T15:31:00;5.70;;;1.92;;
25481;SDS011;13395;50.752;4.268;2022-07-29T15:33:26;10.68;;;2.53;;
25481;SDS011;13395;50.752;4.268;2022-07-29T15:35:52;3.35;;;1.90;;
25481;SDS011;13395;50.752;4.268;2022-07-29T15:38:18;8.52;;;1.98;;
25481;SDS011;13395;50.752;4.268;2022-07-29T15:40:43;4.00;;;1.85;;
25481;SDS011;13395;50.752;4.268;2022-07-29T15:43:10;3.47;;;1.90;;
25481;SDS011;13395;50.752;4.268;2022-07-29T15:45:37;8.07;;;1.83;;
25481;SDS011;13395;50.752;4.268;2022-07-29T15:48:04;8.52;;;2.00;;
25481;SDS011;13395;50.752;4.268;2022-07-29T15:50:31;3.53;;;1.88;;
25481;SDS011;13395;50.752;4.268;2022-07-29T15:52:57;5.55;;;2.35;;
25481;SDS011;13395;50.752;4.268;2022-07-29T15:55:23;5.57;;;2.22;;
25481;SDS011;13395;50.752;4.268;2022-07-29T15:57:49;5.20;;;1.95;;
25481;SDS011;13395;50.752;4.268;2022-07-29T16:00:15;4.82;;;1.98;;
25481;SDS011;13395;50.752;4.268;2022-07-29T16:02:42;7.05;;;2.03;;